sensor_id;sensor_type;location;lat;lon;timestamp;P1;durP1;ratioP1;P2;durP2;ratioP2
43088;SDS011;28709;52.030;5.652;2024-02-15T00:00:47;5.10;;;2.88;;
43088;SDS011;28709;52.030;5.652;2024-02-15T00:03:13;5.80;;;2.95;;
43088;SDS011;28709;52.030;5.652;2024-02-15T00:05:39;5.95;;;2.30;;
43088;SDS011;28709;52.030;5.652;2024-02-15T00:08:05;12.70;;;2.50;;
43088;SDS011;28709;52.030;5.652;2024-02-15T00:10:31;6.80;;;2.35;;
43088;SDS011;28709;52.030;5.652;2024-02-15T00:12:57;6.80;;;2.55;;
43088;SDS011;28709;52.030;5.652;2024-02-15T00:15:23;6.53;;;2.42;;
43088;SDS011;28709;52.030;5.652;2024-02-15T00:17:49;8.02;;;2.85;;
43088;SDS011;28709;52.030;5.652;2024-02-15T00:20:16;5.45;;;2.45;;
43088;SDS011;28709;52.030;5.652;2024-02-15T00:22:43;3.28;;;2.10;;
43088;SDS011;28709;52.030;5.652;2024-02-15T00:25:09;4.05;;;1.90;;
43088;SDS011;28709;52.030;5.652;2024-02-15T00:27:36;8.80;;;2.13;;
43088;SDS011;28709;52.030;5.652;2024-02-15T00:30:02;7.95;;;2.75;;
43088;SDS011;28709;52.030;5.652;2024-02-15T00:32:28;3.65;;;2.30;;
43088;SDS011;28709;52.030;5.652;2024-02-15T00:34:54;25.52;;;3.63;;
43088;SDS011;28709;52.030;5.652;2024-02-15T00:37:20;4.30;;;2.05;;
43088;SDS011;28709;52.030;5.652;2024-02-15T00:39:46;5.93;;;2.70;;
43088;SDS011;28709;52.030;5.652;2024-02-15T00:42:12;6.57;;;3.17;;
43088;SDS011;28709;52.030;5.652;2024-02-15T00:44:38;5.35;;;2.35;;
43088;SDS011;28709;52.030;5.652;2024-02-15T00:47:04;5.60;;;3.10;;
43088;SDS011;28709;52.030;5.652;2024-02-15T00:49:30;7.03;;;3.30;;
43088;SDS011;28709;52.030;5.652;2024-02-15T00:51:57;6.22;;;3.88;;
43088;SDS011;28709;52.030;5.652;2024-02-15T00:54:22;7.53;;;4.80;;
43088;SDS011;28709;52.030;5.652;2024-02-15T00:56:48;9.68;;;5.20;;
43088;SDS011;28709;52.030;5.652;2024-02-15T00:59:14;12.63;;;6.10;;
43088;SDS011;28709;52.030;5.652;2024-02-15T01:01:39;14.02;;;6.55;;
43088;SDS011;28709;52.030;5.652;2024-02-15T01:04:06;10.35;;;5.97;;
43088;SDS011;28709;52.030;5.652;2024-02-15T01:06:32;17.25;;;8.13;;
43088;SDS011;28709;52.030;5.652;2024-02-15T01:08:58;13.82;;;7.32;;
43088;SDS011;28709;52.030;5.652;2024-02-15T01:11:26;12.40;;;6.53;;
43088;SDS011;28709;52.030;5.652;2024-02-15T01:13:53;10.43;;;6.18;;
43088;SDS011;28709;52.030;5.652;2024-02-15T01:16:19;13.60;;;8.48;;
43088;SDS011;28709;52.030;5.652;2024-02-15T01:18:46;20.73;;;8.20;;
43088;SDS011;28709;52.030;5.652;2024-02-15T01:21:13;13.00;;;5.85;;
43088;SDS011;28709;52.030;5.652;2024-02-15T01:23:39;16.13;;;6.82;;
43088;SDS011;28709;52.030;5.652;2024-02-15T01:26:05;12.60;;;6.72;;
43088;SDS011;28709;52.030;5.652;2024-02-15T01:28:31;11.18;;;6.57;;
43088;SDS011;28709;52.030;5.652;2024-02-15T01:30:57;12.18;;;6.78;;
43088;SDS011;28709;52.030;5.652;2024-02-15T01:33:23;14.95;;;6.85;;
43088;SDS011;28709;52.030;5.652;2024-02-15T01:35:48;15.55;;;7.75;;
43088;SDS011;28709;52.030;5.652;2024-02-15T01:38:14;11.25;;;6.53;;
43088;SDS011;28709;52.030;5.652;2024-02-15T01:40:40;12.18;;;6.65;;
43088;SDS011;28709;52.030;5.652;2024-02-15T01:43:05;20.05;;;6.35;;
43088;SDS011;28709;52.030;5.652;2024-02-15T01:45:31;12.10;;;5.63;;
43088;SDS011;28709;52.030;5.652;2024-02-15T01:47:57;12.77;;;5.65;;
43088;SDS011;28709;52.030;5.652;2024-02-15T01:50:23;8.25;;;4.97;;
43088;SDS011;28709;52.030;5.652;2024-02-15T01:52:54;15.23;;;6.40;;
43088;SDS011;28709;52.030;5.652;2024-02-15T01:55:22;10.27;;;5.28;;
43088;SDS011;28709;52.030;5.652;2024-02-15T01:57:48;11.77;;;5.45;;
43088;SDS011;28709;52.030;5.652;2024-02-15T02:00:17;8.23;;;4.38;;
43088;SDS011;28709;52.030;5.652;2024-02-15T02:02:44;10.75;;;5.53;;
43088;SDS011;28709;52.030;5.652;2024-02-15T02:05:11;10.38;;;4.97;;
43088;SDS011;28709;52.030;5.652;2024-02-15T02:07:37;8.55;;;4.75;;
43088;SDS011;28709;52.030;5.652;2024-02-15T02:10:04;9.68;;;4.30;;
43088;SDS011;28709;52.030;5.652;2024-02-15T02:12:30;13.15;;;4.90;;
43088;SDS011;28709;52.030;5.652;2024-02-15T02:14:56;7.47;;;4.10;;
43088;SDS011;28709;52.030;5.652;2024-02-15T02:17:22;5.55;;;3.72;;
43088;SDS011;28709;52.030;5.652;2024-02-15T02:19:48;11.43;;;4.25;;
43088;SDS011;28709;52.030;5.652;2024-02-15T02:22:15;9.60;;;3.85;;
43088;SDS011;28709;52.030;5.652;2024-02-15T02:27:29;5.43;;;3.78;;
43088;SDS011;28709;52.030;5.652;2024-02-15T02:29:57;10.95;;;3.95;;
43088;SDS011;28709;52.030;5.652;2024-02-15T02:32:24;9.10;;;5.05;;
43088;SDS011;28709;52.030;5.652;2024-02-15T02:34:51;18.40;;;5.28;;
43088;SDS011;28709;52.030;5.652;2024-02-15T02:37:22;17.13;;;6.15;;
43088;SDS011;28709;52.030;5.652;2024-02-15T02:39:48;8.02;;;4.53;;
43088;SDS011;28709;52.030;5.652;2024-02-15T02:42:13;12.18;;;4.75;;
43088;SDS011;28709;52.030;5.652;2024-02-15T02:44:39;10.23;;;4.13;;
43088;SDS011;28709;52.030;5.652;2024-02-15T02:47:05;8.18;;;4.10;;
43088;SDS011;28709;52.030;5.652;2024-02-15T02:49:31;12.38;;;4.65;;
43088;SDS011;28709;52.030;5.652;2024-02-15T02:51:57;17.17;;;4.22;;
43088;SDS011;28709;52.030;5.652;2024-02-15T02:54:23;13.05;;;4.95;;
43088;SDS011;28709;52.030;5.652;2024-02-15T02:56:49;8.20;;;4.25;;
43088;SDS011;28709;52.030;5.652;2024-02-15T02:59:15;10.15;;;4.93;;
43088;SDS011;28709;52.030;5.652;2024-02-15T03:01:41;8.23;;;3.85;;
43088;SDS011;28709;52.030;5.652;2024-02-15T03:04:07;6.15;;;3.83;;
43088;SDS011;28709;52.030;5.652;2024-02-15T03:06:33;15.57;;;5.18;;
43088;SDS011;28709;52.030;5.652;2024-02-15T03:08:59;10.88;;;4.50;;
43088;SDS011;28709;52.030;5.652;2024-02-15T03:11:25;11.73;;;5.53;;
43088;SDS011;28709;52.030;5.652;2024-02-15T03:13:51;5.80;;;3.72;;
43088;SDS011;28709;52.030;5.652;2024-02-15T03:16:17;16.23;;;4.85;;
43088;SDS011;28709;52.030;5.652;2024-02-15T03:18:46;9.77;;;4.68;;
43088;SDS011;28709;52.030;5.652;2024-02-15T03:21:13;10.98;;;3.88;;
43088;SDS011;28709;52.030;5.652;2024-02-15T03:23:40;10.75;;;3.03;;
43088;SDS011;28709;52.030;5.652;2024-02-15T03:26:07;8.07;;;3.95;;
43088;SDS011;28709;52.030;5.652;2024-02-15T03:28:33;11.80;;;3.45;;
43088;SDS011;28709;52.030;5.652;2024-02-15T03:31:01;11.15;;;3.25;;
43088;SDS011;28709;52.030;5.652;2024-02-15T03:33:27;5.05;;;3.03;;
43088;SDS011;28709;52.030;5.652;2024-02-15T03:35:57;10.57;;;3.50;;
43088;SDS011;28709;52.030;5.652;2024-02-15T03:38:25;7.03;;;2.88;;
43088;SDS011;28709;52.030;5.652;2024-02-15T03:40:52;10.43;;;2.28;;
43088;SDS011;28709;52.030;5.652;2024-02-15T03:43:18;6.63;;;3.22;;
43088;SDS011;28709;52.030;5.652;2024-02-15T03:45:44;5.18;;;2.10;;
43088;SDS011;28709;52.030;5.652;2024-02-15T03:48:10;7.28;;;3.08;;
43088;SDS011;28709;52.030;5.652;2024-02-15T03:50:35;15.10;;;3.97;;
43088;SDS011;28709;52.030;5.652;2024-02-15T03:53:01;7.35;;;3.72;;
43088;SDS011;28709;52.030;5.652;2024-02-15T03:55:26;10.88;;;4.05;;
43088;SDS011;28709;52.030;5.652;2024-02-15T03:57:52;12.40;;;3.40;;
43088;SDS011;28709;52.030;5.652;2024-02-15T04:00:20;10.85;;;3.63;;
43088;SDS011;28709;52.030;5.652;2024-02-15T04:02:46;9.05;;;3.33;;
43088;SDS011;28709;52.030;5.652;2024-02-15T04:05:14;12.30;;;3.50;;
43088;SDS011;28709;52.030;5.652;2024-02-15T04:07:39;10.07;;;3.60;;
43088;SDS011;28709;52.030;5.652;2024-02-15T04:10:06;7.22;;;3.05;;
43088;SDS011;28709;52.030;5.652;2024-02-15T04:12:33;5.20;;;2.92;;
43088;SDS011;28709;52.030;5.652;2024-02-15T04:14:59;13.60;;;4.60;;
43088;SDS011;28709;52.030;5.652;2024-02-15T04:17:30;12.45;;;3.55;;
43088;SDS011;28709;52.030;5.652;2024-02-15T04:19:59;11.95;;;3.47;;
43088;SDS011;28709;52.030;5.652;2024-02-15T04:22:26;6.82;;;3.35;;
43088;SDS011;28709;52.030;5.652;2024-02-15T04:24:51;4.13;;;2.97;;
43088;SDS011;28709;52.030;5.652;2024-02-15T04:27:17;8.85;;;2.97;;
43088;SDS011;28709;52.030;5.652;2024-02-15T04:29:45;6.15;;;2.33;;
43088;SDS011;28709;52.030;5.652;2024-02-15T04:32:12;9.20;;;3.53;;
43088;SDS011;28709;52.030;5.652;2024-02-15T04:34:38;5.75;;;2.67;;
43088;SDS011;28709;52.030;5.652;2024-02-15T04:37:07;9.98;;;2.83;;
43088;SDS011;28709;52.030;5.652;2024-02-15T04:39:36;8.38;;;2.90;;
43088;SDS011;28709;52.030;5.652;2024-02-15T04:42:04;7.00;;;2.25;;
43088;SDS011;28709;52.030;5.652;2024-02-15T04:44:32;4.65;;;2.53;;
43088;SDS011;28709;52.030;5.652;2024-02-15T04:47:00;8.57;;;2.83;;
43088;SDS011;28709;52.030;5.652;2024-02-15T04:49:27;6.35;;;2.72;;
43088;SDS011;28709;52.030;5.652;2024-02-15T04:51:54;3.58;;;2.15;;
43088;SDS011;28709;52.030;5.652;2024-02-15T04:54:20;10.65;;;2.53;;
43088;SDS011;28709;52.030;5.652;2024-02-15T04:56:46;12.75;;;2.58;;
43088;SDS011;28709;52.030;5.652;2024-02-15T04:59:12;5.57;;;2.22;;
43088;SDS011;28709;52.030;5.652;2024-02-15T05:01:40;12.05;;;3.47;;
43088;SDS011;28709;52.030;5.652;2024-02-15T05:04:08;7.07;;;2.20;;
43088;SDS011;28709;52.030;5.652;2024-02-15T05:06:38;45.05;;;3.35;;
43088;SDS011;28709;52.030;5.652;2024-02-15T05:09:05;5.25;;;2.03;;
43088;SDS011;28709;52.030;5.652;2024-02-15T05:11:33;7.05;;;1.60;;
43088;SDS011;28709;52.030;5.652;2024-02-15T05:14:01;5.32;;;2.03;;
43088;SDS011;28709;52.030;5.652;2024-02-15T05:16:32;11.38;;;2.20;;
43088;SDS011;28709;52.030;5.652;2024-02-15T05:18:59;9.35;;;2.40;;
43088;SDS011;28709;52.030;5.652;2024-02-15T05:21:25;19.50;;;2.88;;
43088;SDS011;28709;52.030;5.652;2024-02-15T05:23:50;4.95;;;1.77;;
43088;SDS011;28709;52.030;5.652;2024-02-15T05:26:17;8.15;;;2.42;;
43088;SDS011;28709;52.030;5.652;2024-02-15T05:28:48;6.88;;;2.42;;
43088;SDS011;28709;52.030;5.652;2024-02-15T05:31:16;9.95;;;4.18;;
43088;SDS011;28709;52.030;5.652;2024-02-15T05:33:45;9.60;;;2.45;;
43088;SDS011;28709;52.030;5.652;2024-02-15T05:36:14;2.42;;;1.25;;
43088;SDS011;28709;52.030;5.652;2024-02-15T05:38:40;9.85;;;2.10;;
43088;SDS011;28709;52.030;5.652;2024-02-15T05:41:07;12.48;;;2.65;;
43088;SDS011;28709;52.030;5.652;2024-02-15T05:43:36;8.13;;;2.63;;
43088;SDS011;28709;52.030;5.652;2024-02-15T05:46:03;4.45;;;2.22;;
43088;SDS011;28709;52.030;5.652;2024-02-15T05:48:29;6.45;;;2.33;;
43088;SDS011;28709;52.030;5.652;2024-02-15T05:50:55;1.70;;;1.35;;
43088;SDS011;28709;52.030;5.652;2024-02-15T05:53:22;13.02;;;2.35;;
43088;SDS011;28709;52.030;5.652;2024-02-15T05:55:49;5.43;;;2.13;;
43088;SDS011;28709;52.030;5.652;2024-02-15T05:58:15;5.70;;;2.70;;
43088;SDS011;28709;52.030;5.652;2024-02-15T06:00:41;9.80;;;1.98;;
43088;SDS011;28709;52.030;5.652;2024-02-15T06:03:09;5.28;;;1.83;;
43088;SDS011;28709;52.030;5.652;2024-02-15T06:05:36;12.52;;;2.35;;
43088;SDS011;28709;52.030;5.652;2024-02-15T06:08:03;7.10;;;2.42;;
43088;SDS011;28709;52.030;5.652;2024-02-15T06:10:29;7.40;;;2.33;;
43088;SDS011;28709;52.030;5.652;2024-02-15T06:12:56;7.40;;;2.00;;
43088;SDS011;28709;52.030;5.652;2024-02-15T06:15:24;9.40;;;2.15;;
43088;SDS011;28709;52.030;5.652;2024-02-15T06:17:50;5.88;;;1.92;;
43088;SDS011;28709;52.030;5.652;2024-02-15T06:20:16;8.95;;;1.98;;
43088;SDS011;28709;52.030;5.652;2024-02-15T06:22:45;8.93;;;2.30;;
43088;SDS011;28709;52.030;5.652;2024-02-15T06:25:11;9.98;;;2.70;;
43088;SDS011;28709;52.030;5.652;2024-02-15T06:27:38;4.50;;;1.77;;
43088;SDS011;28709;52.030;5.652;2024-02-15T06:30:11;6.72;;;2.40;;
43088;SDS011;28709;52.030;5.652;2024-02-15T06:32:56;11.70;;;3.10;;
43088;SDS011;28709;52.030;5.652;2024-02-15T06:35:41;9.45;;;1.45;;
43088;SDS011;28709;52.030;5.652;2024-02-15T06:38:25;7.63;;;2.58;;
43088;SDS011;28709;52.030;5.652;2024-02-15T06:41:10;7.95;;;3.08;;
43088;SDS011;28709;52.030;5.652;2024-02-15T06:43:36;6.63;;;2.17;;
43088;SDS011;28709;52.030;5.652;2024-02-15T06:46:02;14.52;;;1.92;;
43088;SDS011;28709;52.030;5.652;2024-02-15T06:48:28;10.68;;;2.25;;
43088;SDS011;28709;52.030;5.652;2024-02-15T06:50:54;7.13;;;2.05;;
43088;SDS011;28709;52.030;5.652;2024-02-15T06:53:20;6.07;;;2.00;;
43088;SDS011;28709;52.030;5.652;2024-02-15T06:55:46;7.60;;;1.65;;
43088;SDS011;28709;52.030;5.652;2024-02-15T06:58:16;5.57;;;1.95;;
43088;SDS011;28709;52.030;5.652;2024-02-15T07:00:45;4.32;;;2.15;;
43088;SDS011;28709;52.030;5.652;2024-02-15T07:03:10;3.45;;;1.45;;
43088;SDS011;28709;52.030;5.652;2024-02-15T07:05:36;5.30;;;1.75;;
43088;SDS011;28709;52.030;5.652;2024-02-15T07:08:07;6.22;;;2.20;;
43088;SDS011;28709;52.030;5.652;2024-02-15T07:10:36;4.57;;;1.45;;
43088;SDS011;28709;52.030;5.652;2024-02-15T07:13:03;3.17;;;1.80;;
43088;SDS011;28709;52.030;5.652;2024-02-15T07:15:29;7.15;;;1.50;;
43088;SDS011;28709;52.030;5.652;2024-02-15T07:17:58;4.68;;;1.85;;
43088;SDS011;28709;52.030;5.652;2024-02-15T07:20:24;4.75;;;1.60;;
43088;SDS011;28709;52.030;5.652;2024-02-15T07:22:50;5.43;;;1.92;;
43088;SDS011;28709;52.030;5.652;2024-02-15T07:25:16;13.50;;;2.35;;
43088;SDS011;28709;52.030;5.652;2024-02-15T07:27:43;5.72;;;2.10;;
43088;SDS011;28709;52.030;5.652;2024-02-15T07:30:09;3.65;;;1.52;;
43088;SDS011;28709;52.030;5.652;2024-02-15T07:32:35;7.40;;;1.67;;
43088;SDS011;28709;52.030;5.652;2024-02-15T07:35:01;5.65;;;1.90;;
43088;SDS011;28709;52.030;5.652;2024-02-15T07:37:26;5.90;;;1.90;;
43088;SDS011;28709;52.030;5.652;2024-02-15T07:39:54;6.53;;;1.77;;
43088;SDS011;28709;52.030;5.652;2024-02-15T07:42:19;3.15;;;1.45;;
43088;SDS011;28709;52.030;5.652;2024-02-15T07:44:45;5.70;;;1.80;;
43088;SDS011;28709;52.030;5.652;2024-02-15T07:47:11;2.83;;;1.30;;
43088;SDS011;28709;52.030;5.652;2024-02-15T07:49:36;5.68;;;1.35;;
43088;SDS011;28709;52.030;5.652;2024-02-15T07:52:02;3.88;;;1.42;;
43088;SDS011;28709;52.030;5.652;2024-02-15T07:54:29;3.17;;;1.77;;
43088;SDS011;28709;52.030;5.652;2024-02-15T07:56:58;4.55;;;1.52;;
43088;SDS011;28709;52.030;5.652;2024-02-15T07:59:24;2.97;;;1.13;;
43088;SDS011;28709;52.030;5.652;2024-02-15T08:01:50;5.93;;;1.42;;
43088;SDS011;28709;52.030;5.652;2024-02-15T08:04:16;2.83;;;1.50;;
43088;SDS011;28709;52.030;5.652;2024-02-15T08:06:43;4.03;;;1.40;;
43088;SDS011;28709;52.030;5.652;2024-02-15T08:09:09;1.73;;;1.38;;
43088;SDS011;28709;52.030;5.652;2024-02-15T08:11:43;4.13;;;1.38;;
43088;SDS011;28709;52.030;5.652;2024-02-15T08:14:09;4.30;;;1.20;;
43088;SDS011;28709;52.030;5.652;2024-02-15T08:16:36;2.03;;;1.17;;
43088;SDS011;28709;52.030;5.652;2024-02-15T08:19:02;6.97;;;1.63;;
43088;SDS011;28709;52.030;5.652;2024-02-15T08:21:33;1.70;;;1.13;;
43088;SDS011;28709;52.030;5.652;2024-02-15T08:24:01;1.23;;;0.95;;
43088;SDS011;28709;52.030;5.652;2024-02-15T08:26:40;4.68;;;1.55;;
43088;SDS011;28709;52.030;5.652;2024-02-15T08:29:06;3.63;;;1.17;;
43088;SDS011;28709;52.030;5.652;2024-02-15T08:31:32;4.65;;;1.25;;
43088;SDS011;28709;52.030;5.652;2024-02-15T08:34:01;1.63;;;1.25;;
43088;SDS011;28709;52.030;5.652;2024-02-15T08:36:30;2.20;;;1.45;;
43088;SDS011;28709;52.030;5.652;2024-02-15T08:38:56;6.75;;;1.35;;
43088;SDS011;28709;52.030;5.652;2024-02-15T08:41:22;3.35;;;2.38;;
43088;SDS011;28709;52.030;5.652;2024-02-15T08:43:52;7.93;;;1.75;;
43088;SDS011;28709;52.030;5.652;2024-02-15T08:46:18;2.25;;;2.05;;
43088;SDS011;28709;52.030;5.652;2024-02-15T08:48:44;1.42;;;1.13;;
43088;SDS011;28709;52.030;5.652;2024-02-15T08:51:11;2.70;;;1.77;;
43088;SDS011;28709;52.030;5.652;2024-02-15T08:53:37;1.92;;;1.38;;
43088;SDS011;28709;52.030;5.652;2024-02-15T08:56:06;3.35;;;1.30;;
43088;SDS011;28709;52.030;5.652;2024-02-15T08:58:33;2.60;;;1.40;;
43088;SDS011;28709;52.030;5.652;2024-02-15T09:01:00;1.50;;;1.13;;
43088;SDS011;28709;52.030;5.652;2024-02-15T09:03:27;3.47;;;1.50;;
43088;SDS011;28709;52.030;5.652;2024-02-15T09:05:53;1.35;;;0.98;;
43088;SDS011;28709;52.030;5.652;2024-02-15T09:08:19;3.83;;;1.17;;
43088;SDS011;28709;52.030;5.652;2024-02-15T09:10:54;4.50;;;1.40;;
43088;SDS011;28709;52.030;5.652;2024-02-15T09:13:20;3.85;;;1.35;;
43088;SDS011;28709;52.030;5.652;2024-02-15T09:15:47;2.63;;;1.40;;
43088;SDS011;28709;52.030;5.652;2024-02-15T09:18:13;4.20;;;1.65;;
43088;SDS011;28709;52.030;5.652;2024-02-15T09:20:38;3.88;;;1.05;;
43088;SDS011;28709;52.030;5.652;2024-02-15T09:23:09;2.50;;;1.38;;
43088;SDS011;28709;52.030;5.652;2024-02-15T09:25:40;4.50;;;1.45;;
43088;SDS011;28709;52.030;5.652;2024-02-15T09:28:09;4.78;;;2.42;;
43088;SDS011;28709;52.030;5.652;2024-02-15T09:30:34;6.22;;;1.73;;
43088;SDS011;28709;52.030;5.652;2024-02-15T09:33:00;5.07;;;1.77;;
43088;SDS011;28709;52.030;5.652;2024-02-15T09:35:29;8.05;;;2.15;;
43088;SDS011;28709;52.030;5.652;2024-02-15T09:37:55;7.03;;;2.47;;
43088;SDS011;28709;52.030;5.652;2024-02-15T09:40:21;2.97;;;1.58;;
43088;SDS011;28709;52.030;5.652;2024-02-15T09:42:51;3.20;;;1.75;;
43088;SDS011;28709;52.030;5.652;2024-02-15T09:45:17;5.10;;;2.28;;
43088;SDS011;28709;52.030;5.652;2024-02-15T09:47:45;4.53;;;1.73;;
43088;SDS011;28709;52.030;5.652;2024-02-15T09:50:15;6.15;;;2.28;;
43088;SDS011;28709;52.030;5.652;2024-02-15T09:52:44;8.00;;;1.73;;
43088;SDS011;28709;52.030;5.652;2024-02-15T09:55:10;5.88;;;2.38;;
43088;SDS011;28709;52.030;5.652;2024-02-15T09:57:38;4.20;;;1.70;;
43088;SDS011;28709;52.030;5.652;2024-02-15T10:00:04;3.90;;;1.33;;
43088;SDS011;28709;52.030;5.652;2024-02-15T10:02:35;9.05;;;1.50;;
43088;SDS011;28709;52.030;5.652;2024-02-15T10:05:02;3.00;;;1.52;;
43088;SDS011;28709;52.030;5.652;2024-02-15T10:07:28;4.15;;;1.38;;
43088;SDS011;28709;52.030;5.652;2024-02-15T10:09:54;4.38;;;1.60;;
43088;SDS011;28709;52.030;5.652;2024-02-15T10:12:20;4.15;;;1.63;;
43088;SDS011;28709;52.030;5.652;2024-02-15T10:14:49;2.70;;;1.33;;
43088;SDS011;28709;52.030;5.652;2024-02-15T10:17:18;5.53;;;1.80;;
43088;SDS011;28709;52.030;5.652;2024-02-15T10:19:44;5.60;;;1.77;;
43088;SDS011;28709;52.030;5.652;2024-02-15T10:22:12;12.15;;;1.77;;
43088;SDS011;28709;52.030;5.652;2024-02-15T10:24:40;3.85;;;1.92;;
43088;SDS011;28709;52.030;5.652;2024-02-15T10:27:06;1.23;;;0.75;;
43088;SDS011;28709;52.030;5.652;2024-02-15T10:29:32;6.10;;;1.95;;
43088;SDS011;28709;52.030;5.652;2024-02-15T10:32:02;6.03;;;2.08;;
43088;SDS011;28709;52.030;5.652;2024-02-15T10:34:29;7.35;;;1.83;;
43088;SDS011;28709;52.030;5.652;2024-02-15T10:36:55;5.45;;;1.27;;
43088;SDS011;28709;52.030;5.652;2024-02-15T10:39:36;2.83;;;1.33;;
43088;SDS011;28709;52.030;5.652;2024-02-15T10:42:02;8.75;;;1.20;;
43088;SDS011;28709;52.030;5.652;2024-02-15T10:44:31;4.25;;;1.60;;
43088;SDS011;28709;52.030;5.652;2024-02-15T10:46:59;2.50;;;0.98;;
43088;SDS011;28709;52.030;5.652;2024-02-15T10:49:25;7.90;;;1.63;;
43088;SDS011;28709;52.030;5.652;2024-02-15T10:51:56;5.90;;;1.55;;
43088;SDS011;28709;52.030;5.652;2024-02-15T10:57:28;3.53;;;1.35;;
43088;SDS011;28709;52.030;5.652;2024-02-15T10:59:58;3.38;;;1.38;;
43088;SDS011;28709;52.030;5.652;2024-02-15T11:02:57;7.40;;;1.33;;
43088;SDS011;28709;52.030;5.652;2024-02-15T11:05:33;9.43;;;1.77;;
43088;SDS011;28709;52.030;5.652;2024-02-15T11:08:09;4.28;;;1.35;;
43088;SDS011;28709;52.030;5.652;2024-02-15T11:10:36;8.02;;;1.52;;
43088;SDS011;28709;52.030;5.652;2024-02-15T11:13:03;3.72;;;1.65;;
43088;SDS011;28709;52.030;5.652;2024-02-15T11:18:02;1.58;;;1.00;;
43088;SDS011;28709;52.030;5.652;2024-02-15T11:23:02;4.13;;;0.95;;
43088;SDS011;28709;52.030;5.652;2024-02-15T11:25:32;6.95;;;2.45;;
43088;SDS011;28709;52.030;5.652;2024-02-15T11:30:52;1.92;;;1.30;;
43088;SDS011;28709;52.030;5.652;2024-02-15T11:36:12;6.53;;;1.80;;
43088;SDS011;28709;52.030;5.652;2024-02-15T11:38:38;3.78;;;1.30;;
43088;SDS011;28709;52.030;5.652;2024-02-15T11:41:10;2.90;;;1.80;;
43088;SDS011;28709;52.030;5.652;2024-02-15T11:46:12;6.40;;;1.42;;
43088;SDS011;28709;52.030;5.652;2024-02-15T11:48:43;8.05;;;1.20;;
43088;SDS011;28709;52.030;5.652;2024-02-15T11:51:09;4.50;;;1.52;;
43088;SDS011;28709;52.030;5.652;2024-02-15T11:53:39;1.83;;;1.10;;
43088;SDS011;28709;52.030;5.652;2024-02-15T11:56:05;4.50;;;1.40;;
43088;SDS011;28709;52.030;5.652;2024-02-15T11:58:34;6.75;;;1.75;;
43088;SDS011;28709;52.030;5.652;2024-02-15T12:01:17;2.83;;;1.30;;
43088;SDS011;28709;52.030;5.652;2024-02-15T12:06:45;2.78;;;0.85;;
43088;SDS011;28709;52.030;5.652;2024-02-15T12:09:29;1.20;;;1.00;;
43088;SDS011;28709;52.030;5.652;2024-02-15T12:12:14;9.43;;;1.33;;
43088;SDS011;28709;52.030;5.652;2024-02-15T12:17:43;3.43;;;0.83;;
43088;SDS011;28709;52.030;5.652;2024-02-15T12:20:27;4.20;;;1.35;;
43088;SDS011;28709;52.030;5.652;2024-02-15T12:22:53;2.97;;;1.50;;
43088;SDS011;28709;52.030;5.652;2024-02-15T12:25:20;2.25;;;1.30;;
43088;SDS011;28709;52.030;5.652;2024-02-15T12:27:52;8.07;;;1.50;;
43088;SDS011;28709;52.030;5.652;2024-02-15T12:30:19;2.38;;;1.20;;
43088;SDS011;28709;52.030;5.652;2024-02-15T12:32:47;6.30;;;1.67;;
43088;SDS011;28709;52.030;5.652;2024-02-15T12:35:14;2.78;;;1.67;;
43088;SDS011;28709;52.030;5.652;2024-02-15T12:37:48;3.50;;;1.20;;
43088;SDS011;28709;52.030;5.652;2024-02-15T12:40:37;11.65;;;3.55;;
43088;SDS011;28709;52.030;5.652;2024-02-15T12:43:05;3.53;;;1.58;;
43088;SDS011;28709;52.030;5.652;2024-02-15T12:45:37;2.45;;;1.02;;
43088;SDS011;28709;52.030;5.652;2024-02-15T12:48:05;1.83;;;0.95;;
43088;SDS011;28709;52.030;5.652;2024-02-15T12:50:32;5.25;;;1.10;;
43088;SDS011;28709;52.030;5.652;2024-02-15T12:52:59;2.40;;;0.85;;
43088;SDS011;28709;52.030;5.652;2024-02-15T12:55:31;2.38;;;1.10;;
43088;SDS011;28709;52.030;5.652;2024-02-15T12:58:02;4.28;;;1.20;;
43088;SDS011;28709;52.030;5.652;2024-02-15T13:00:33;4.10;;;1.33;;
43088;SDS011;28709;52.030;5.652;2024-02-15T13:03:06;4.63;;;1.10;;
